Terminal Aerodrome Forecast
Issued by NWS

Home | Current Version | Previous Version | Text Only | Print | Product List | Glossary On
Versions: 1 2 3 4 5 6 7 8 9 10 11 12 13 14 15
000
FTAK31 PANC 251726
TAFATK
TAF
PATK 251726Z 2518/2618 18012KT P6SM SCT060
     FM260000 19010G20KT P6SM SCT020 OVC035
     FM260900 16012G21KT P6SM VCSH SCT035 OVC050=

USA.gov is the U.S. government's official web portal to all federal, state and local government web resources and services.